createdAt,value
2018-05-06T00:00:56.000Z,28.5
2018-05-06T00:02:56.000Z,28.5
2018-05-06T00:04:56.000Z,28.4
2018-05-06T00:06:56.000Z,28.4
2018-05-06T00:07:56.000Z,28.4
2018-05-06T00:09:56.000Z,28.5
2018-05-06T00:11:56.000Z,28.5
2018-05-06T00:13:56.000Z,28.4
2018-05-06T00:14:56.000Z,28.4
2018-05-06T00:16:56.000Z,28.5
2018-05-06T00:18:56.000Z,28.4
2018-05-06T00:19:56.000Z,28.4
2018-05-06T00:20:56.000Z,28.4
2018-05-06T00:22:56.000Z,28.4
2018-05-06T00:24:56.000Z,28.3
2018-05-06T00:25:56.000Z,28.3
2018-05-06T00:27:56.000Z,28.4
2018-05-06T00:29:56.000Z,28.4
2018-05-06T00:31:56.000Z,28.4
2018-05-06T00:33:56.000Z,28.4
2018-05-06T00:34:56.000Z,28.4
2018-05-06T00:36:56.000Z,28.4
2018-05-06T00:37:56.000Z,28.4
2018-05-06T00:39:56.000Z,28.4
2018-05-06T00:41:56.000Z,28.4
2018-05-06T00:42:56.000Z,28.4
2018-05-06T00:43:56.000Z,28.4
2018-05-06T00:45:56.000Z,28.4
2018-05-06T00:47:56.000Z,28.4
2018-05-06T00:48:56.000Z,28.4
2018-05-06T00:50:55.000Z,28.4
2018-05-06T00:51:55.000Z,28.5
2018-05-06T00:52:55.000Z,28.5
2018-05-06T00:53:55.000Z,28.5
2018-05-06T00:54:55.000Z,28.5
2018-05-06T00:56:40.000Z,28.6
2018-05-06T00:57:55.000Z,28.5
2018-05-06T00:58:55.000Z,28.5
2018-05-06T00:59:56.000Z,28.5
2018-05-06T01:01:55.000Z,28.5
2018-05-06T01:03:55.000Z,28.4
2018-05-06T01:05:55.000Z,28.3
2018-05-06T01:06:55.000Z,28.3
2018-05-06T01:07:55.000Z,28.4
2018-05-06T01:08:55.000Z,28.4
2018-05-06T01:09:56.000Z,28.5
2018-05-06T01:11:55.000Z,28.6
2018-05-06T01:13:55.000Z,28.5
2018-05-06T01:14:55.000Z,28.5
2018-05-06T01:15:55.000Z,28.6
2018-05-06T01:16:55.000Z,28.6
2018-05-06T01:17:55.000Z,28.6
2018-05-06T01:18:56.000Z,28.7
2018-05-06T01:20:55.000Z,28.7
2018-05-06T01:21:55.000Z,28.7
2018-05-06T01:23:56.000Z,28.6
2018-05-06T01:25:40.000Z,28.6
2018-05-06T01:26:55.000Z,28.5
2018-05-06T01:27:55.000Z,28.5
2018-05-06T01:28:55.000Z,28.5
2018-05-06T01:30:55.000Z,28.5
2018-05-06T01:32:55.000Z,28.4
2018-05-06T01:33:55.000Z,28.4
2018-05-06T01:35:55.000Z,28.4
2018-05-06T01:36:55.000Z,28.4
2018-05-06T01:38:40.000Z,28.5
2018-05-06T01:39:55.000Z,28.4
2018-05-06T01:40:55.000Z,28.4
2018-05-06T01:42:55.000Z,28.4
2018-05-06T01:43:55.000Z,28.4
2018-05-06T01:45:40.000Z,28.4
2018-05-06T01:46:55.000Z,28.3
2018-05-06T01:47:56.000Z,28.4
2018-05-06T01:49:55.000Z,28.4
2018-05-06T01:51:55.000Z,28.4
2018-05-06T01:52:55.000Z,28.4
2018-05-06T01:54:55.000Z,28.4
2018-05-06T01:55:55.000Z,28.4
2018-05-06T01:57:55.000Z,28.4
2018-05-06T01:59:55.000Z,28.3
2018-05-06T02:01:55.000Z,28.2
2018-05-06T02:03:55.000Z,28.2
2018-05-06T02:05:55.000Z,28.2
2018-05-06T02:07:55.000Z,28.1
2018-05-06T02:08:55.000Z,28.1
2018-05-06T02:10:55.000Z,28.1
2018-05-06T02:12:55.000Z,28.1
2018-05-06T02:14:55.000Z,28
2018-05-06T02:16:55.000Z,28
2018-05-06T02:18:55.000Z,28
2018-05-06T02:20:55.000Z,28
2018-05-06T02:21:55.000Z,28.1
2018-05-06T02:23:55.000Z,28.1
2018-05-06T02:24:55.000Z,28.2
2018-05-06T02:26:55.000Z,28.2
2018-05-06T02:27:55.000Z,28.3
2018-05-06T02:29:55.000Z,28.3
2018-05-06T02:30:55.000Z,28.3
2018-05-06T02:31:55.000Z,28.3
2018-05-06T02:32:55.000Z,28.4
2018-05-06T02:34:55.000Z,28.5
2018-05-06T02:35:55.000Z,28.5
2018-05-06T02:37:55.000Z,28.4
2018-05-06T02:38:55.000Z,28.4
2018-05-06T02:39:55.000Z,28.4
2018-05-06T02:40:55.000Z,28.5
2018-05-06T02:42:40.000Z,28.5
2018-05-06T02:43:55.000Z,28.4
2018-05-06T02:44:55.000Z,28.4
2018-05-06T02:46:55.000Z,28.4
2018-05-06T02:47:55.000Z,28.4
2018-05-06T02:48:55.000Z,28.4
2018-05-06T02:50:55.000Z,28.4
2018-05-06T02:52:55.000Z,28.3
2018-05-06T02:54:55.000Z,28.2
2018-05-06T02:55:55.000Z,28.2
2018-05-06T02:56:56.000Z,28.2
2018-05-06T02:58:56.000Z,28.3
2018-05-06T03:00:56.000Z,28.2
2018-05-06T03:01:56.000Z,28.2
2018-05-06T03:03:56.000Z,28.3
2018-05-06T03:05:56.000Z,28.2
2018-05-06T03:07:56.000Z,28.1
2018-05-06T03:08:56.000Z,28.1
2018-05-06T03:09:56.000Z,28.1
2018-05-06T03:11:56.000Z,28.1
2018-05-06T03:12:56.000Z,28.1
2018-05-06T03:14:56.000Z,28.1
2018-05-06T03:16:56.000Z,28.1
2018-05-06T03:18:56.000Z,28
2018-05-06T03:19:56.000Z,28.1
2018-05-06T03:20:56.000Z,28.1
2018-05-06T03:22:56.000Z,28.2
2018-05-06T03:24:56.000Z,28.2
2018-05-06T03:26:56.000Z,28.1
2018-05-06T03:28:56.000Z,28
2018-05-06T03:30:56.000Z,28
2018-05-06T03:31:56.000Z,28
2018-05-06T03:33:56.000Z,28.1
2018-05-06T03:34:56.000Z,28.1
2018-05-06T03:36:56.000Z,28.1
2018-05-06T03:37:56.000Z,28.2
2018-05-06T03:38:56.000Z,28.2
2018-05-06T03:40:56.000Z,28.3
2018-05-06T03:42:56.000Z,28.2
2018-05-06T03:43:56.000Z,28.2
2018-05-06T03:45:56.000Z,28.2
2018-05-06T03:46:56.000Z,28.2
2018-05-06T03:48:56.000Z,28.2
2018-05-06T03:49:56.000Z,28.3
2018-05-06T03:51:56.000Z,28.2
2018-05-06T03:53:56.000Z,28.1
2018-05-06T03:54:56.000Z,28.1
2018-05-06T03:55:56.000Z,28.2
2018-05-06T03:57:56.000Z,28.2
2018-05-06T03:58:56.000Z,28.2
2018-05-06T04:00:55.000Z,28.2
2018-05-06T04:02:55.000Z,28.1
2018-05-06T04:04:55.000Z,28.1
2018-05-06T04:05:55.000Z,28.1
2018-05-06T04:06:55.000Z,28.1
2018-05-06T04:08:55.000Z,28.1
2018-05-06T04:09:55.000Z,28.1
2018-05-06T04:10:55.000Z,28.2
2018-05-06T04:11:55.000Z,28.2
2018-05-06T04:12:55.000Z,28.3
2018-05-06T04:14:55.000Z,28.4
2018-05-06T04:16:55.000Z,28.3
2018-05-06T04:17:55.000Z,28.2
2018-05-06T04:18:55.000Z,28.2
2018-05-06T04:19:55.000Z,28.2
2018-05-06T04:21:55.000Z,28.3
2018-05-06T04:22:55.000Z,28.3
2018-05-06T04:24:55.000Z,28.2
2018-05-06T04:25:55.000Z,28.2
2018-05-06T04:26:55.000Z,28.2
2018-05-06T04:28:55.000Z,28.2
2018-05-06T04:30:55.000Z,28.2
2018-05-06T04:32:55.000Z,28.1
2018-05-06T04:34:55.000Z,28.1
2018-05-06T04:36:40.000Z,28.1
2018-05-06T04:37:55.000Z,28.1
2018-05-06T04:39:55.000Z,28.1
2018-05-06T04:40:55.000Z,28.1
2018-05-06T04:42:55.000Z,28.1
2018-05-06T04:44:55.000Z,28.1
2018-05-06T04:46:55.000Z,28.1
2018-05-06T04:47:55.000Z,28.1
2018-05-06T04:48:55.000Z,28.1
2018-05-06T04:50:55.000Z,28
2018-05-06T04:51:55.000Z,28
2018-05-06T04:53:55.000Z,28.1
2018-05-06T04:55:55.000Z,28.1
2018-05-06T04:56:55.000Z,28.1
2018-05-06T04:58:55.000Z,28.1
2018-05-06T04:59:55.000Z,28.1
2018-05-06T05:01:55.000Z,28.1
2018-05-06T05:03:56.000Z,28.1
2018-05-06T05:05:56.000Z,28.1
2018-05-06T05:06:56.000Z,28.1
2018-05-06T05:08:56.000Z,28.2
2018-05-06T05:09:56.000Z,28.2
2018-05-06T05:11:56.000Z,28.2
2018-05-06T05:13:56.000Z,28.2
2018-05-06T05:15:56.000Z,28.2
2018-05-06T05:17:56.000Z,28.2
2018-05-06T05:18:56.000Z,28.1
2018-05-06T05:20:56.000Z,28.2
2018-05-06T05:22:56.000Z,28.1
2018-05-06T05:24:56.000Z,28.1
2018-05-06T05:25:56.000Z,28.1
2018-05-06T05:27:56.000Z,28.2
2018-05-06T05:29:56.000Z,28.2
2018-05-06T05:31:56.000Z,28.2
2018-05-06T05:32:56.000Z,28.2
2018-05-06T05:34:56.000Z,28.2
2018-05-06T05:36:56.000Z,28.3
2018-05-06T05:38:56.000Z,28.2
2018-05-06T05:39:56.000Z,28.2
2018-05-06T05:41:56.000Z,28.2
2018-05-06T05:42:56.000Z,28.3
2018-05-06T05:44:56.000Z,28.4
2018-05-06T05:46:56.000Z,28.4
2018-05-06T05:47:56.000Z,28.4
2018-05-06T05:49:56.000Z,28.5
2018-05-06T05:51:56.000Z,28.4
2018-05-06T05:53:56.000Z,28.4
2018-05-06T05:55:56.000Z,28.4
2018-05-06T05:56:56.000Z,28.4
2018-05-06T05:58:56.000Z,28.4
2018-05-06T05:59:56.000Z,28.4
2018-05-06T06:00:56.000Z,28.5
2018-05-06T06:01:56.000Z,28.5
2018-05-06T06:02:56.000Z,28.6
2018-05-06T06:04:56.000Z,28.7
2018-05-06T06:05:56.000Z,28.7
2018-05-06T06:07:40.000Z,28.7
2018-05-06T06:08:56.000Z,28.7
2018-05-06T06:10:56.000Z,28.7
2018-05-06T06:12:56.000Z,28.6
2018-05-06T06:13:56.000Z,28.6
2018-05-06T06:15:40.000Z,28.7
2018-05-06T06:16:56.000Z,28.7
2018-05-06T06:18:56.000Z,28.7
2018-05-06T06:20:56.000Z,28.7
2018-05-06T06:22:56.000Z,28.7
2018-05-06T06:23:56.000Z,28.7
2018-05-06T06:25:56.000Z,28.8
2018-05-06T06:26:56.000Z,28.9
2018-05-06T06:27:56.000Z,28.9
2018-05-06T06:28:56.000Z,29
2018-05-06T06:30:40.000Z,29.1
2018-05-06T06:31:56.000Z,29
2018-05-06T06:33:56.000Z,29
2018-05-06T06:34:56.000Z,29
2018-05-06T06:36:56.000Z,29.1
2018-05-06T06:38:56.000Z,29
2018-05-06T06:40:56.000Z,29
2018-05-06T06:41:56.000Z,29
2018-05-06T06:43:56.000Z,29
2018-05-06T06:45:56.000Z,29
2018-05-06T06:47:56.000Z,29
2018-05-06T06:49:56.000Z,29.1
2018-05-06T06:50:56.000Z,29.1
2018-05-06T06:51:56.000Z,29.2
2018-05-06T06:52:56.000Z,29.3
2018-05-06T06:54:56.000Z,29.4
2018-05-06T06:55:56.000Z,29.4
2018-05-06T06:57:56.000Z,29.5
2018-05-06T06:59:56.000Z,29.5
2018-05-06T07:01:56.000Z,29.4
2018-05-06T07:03:56.000Z,29.4
2018-05-06T07:05:56.000Z,29.4
2018-05-06T07:06:56.000Z,29.4
2018-05-06T07:07:56.000Z,29.5
2018-05-06T07:09:56.000Z,29.6
2018-05-06T07:11:56.000Z,29.5
2018-05-06T07:13:56.000Z,29.5
2018-05-06T07:15:56.000Z,29.5
2018-05-06T07:17:56.000Z,29.5
2018-05-06T07:19:56.000Z,29.6
2018-05-06T07:20:56.000Z,29.6
2018-05-06T07:22:56.000Z,29.7
2018-05-06T07:23:56.000Z,29.8
2018-05-06T07:25:56.000Z,29.9
2018-05-06T07:26:56.000Z,29.9
2018-05-06T07:27:56.000Z,29.9
2018-05-06T07:28:56.000Z,30
2018-05-06T07:30:56.000Z,30
2018-05-06T07:32:56.000Z,30
2018-05-06T07:34:56.000Z,30
2018-05-06T07:35:56.000Z,30
2018-05-06T07:36:56.000Z,30.1
2018-05-06T07:37:56.000Z,30.1
2018-05-06T07:39:56.000Z,30.3
2018-05-06T07:41:56.000Z,30.3
2018-05-06T07:42:56.000Z,30.3
2018-05-06T07:44:56.000Z,30.4
2018-05-06T07:46:56.000Z,30.5
2018-05-06T07:47:56.000Z,30.5
2018-05-06T07:49:56.000Z,30.6
2018-05-06T07:51:56.000Z,30.7
2018-05-06T07:53:56.000Z,30.7
2018-05-06T07:55:56.000Z,30.7
2018-05-06T07:57:56.000Z,30.5
2018-05-06T07:58:56.000Z,30.4
2018-05-06T08:00:56.000Z,30.3
2018-05-06T08:02:56.000Z,30.2
2018-05-06T08:03:56.000Z,30.2
2018-05-06T08:05:56.000Z,30.1
2018-05-06T08:06:56.000Z,30.1
2018-05-06T08:08:56.000Z,30.1
2018-05-06T08:09:56.000Z,30.1
2018-05-06T08:11:56.000Z,30.1
2018-05-06T08:12:56.000Z,30.1
2018-05-06T08:13:56.000Z,30
2018-05-06T08:15:56.000Z,30
2018-05-06T08:16:56.000Z,30
2018-05-06T08:18:56.000Z,30
2018-05-06T08:20:56.000Z,29.9
2018-05-06T08:22:56.000Z,29.8
2018-05-06T08:23:56.000Z,29.8
2018-05-06T08:24:56.000Z,29.8
2018-05-06T08:25:56.000Z,29.8
2018-05-06T08:27:56.000Z,29.8
2018-05-06T08:28:56.000Z,29.9
2018-05-06T08:30:56.000Z,29.8
2018-05-06T08:32:56.000Z,29.6
2018-05-06T08:34:56.000Z,29.5
2018-05-06T08:36:56.000Z,29.5
2018-05-06T08:38:56.000Z,29.5
2018-05-06T08:40:56.000Z,29.4
2018-05-06T08:41:56.000Z,29.4
2018-05-06T08:43:41.000Z,29.5
2018-05-06T08:44:56.000Z,29.5
2018-05-06T08:45:56.000Z,29.5
2018-05-06T08:46:56.000Z,29.5
2018-05-06T08:48:41.000Z,29.5
2018-05-06T08:49:56.000Z,29.5
2018-05-06T08:51:56.000Z,29.5
2018-05-06T08:53:56.000Z,29.4
2018-05-06T08:55:56.000Z,29.4
2018-05-06T08:57:56.000Z,29.3
2018-05-06T08:59:56.000Z,29.3
2018-05-06T09:00:56.000Z,29.3
2018-05-06T09:02:56.000Z,29.3
2018-05-06T09:04:56.000Z,29.3
2018-05-06T09:06:56.000Z,29.3
2018-05-06T09:08:56.000Z,29.2
2018-05-06T09:09:56.000Z,29.2
2018-05-06T09:11:56.000Z,29.3
2018-05-06T09:13:41.000Z,29.3
2018-05-06T09:14:56.000Z,29.3
2018-05-06T09:16:56.000Z,29.3
2018-05-06T09:18:55.000Z,29.3
2018-05-06T09:19:55.000Z,29.3
2018-05-06T09:21:55.000Z,29.4
2018-05-06T09:22:55.000Z,29.4
2018-05-06T09:23:55.000Z,29.5
2018-05-06T09:25:55.000Z,29.5
2018-05-06T09:27:55.000Z,29.4
2018-05-06T09:28:55.000Z,29.4
2018-05-06T09:30:55.000Z,29.5
2018-05-06T09:31:55.000Z,29.5
2018-05-06T09:32:55.000Z,29.5
2018-05-06T09:34:40.000Z,29.6
2018-05-06T09:35:55.000Z,29.6
2018-05-06T09:36:55.000Z,29.6
2018-05-06T09:38:55.000Z,29.6
2018-05-06T09:40:55.000Z,29.5
2018-05-06T09:41:55.000Z,29.5
2018-05-06T09:42:55.000Z,29.5
2018-05-06T09:44:55.000Z,29.5
2018-05-06T09:45:55.000Z,29.5
2018-05-06T09:47:55.000Z,29.6
2018-05-06T09:49:55.000Z,29.5
2018-05-06T09:50:55.000Z,29.5
2018-05-06T09:51:55.000Z,29.5
2018-05-06T09:53:55.000Z,29.6
2018-05-06T09:54:55.000Z,29.6
2018-05-06T09:55:55.000Z,29.6
2018-05-06T09:57:55.000Z,29.7
2018-05-06T09:59:55.000Z,29.6
2018-05-06T10:00:55.000Z,29.6
2018-05-06T10:01:55.000Z,29.6
2018-05-06T10:02:55.000Z,29.6
2018-05-06T10:03:55.000Z,29.7
2018-05-06T10:04:55.000Z,29.7
2018-05-06T10:06:55.000Z,29.7
2018-05-06T10:08:40.000Z,29.7
2018-05-06T10:09:55.000Z,29.6
2018-05-06T10:11:55.000Z,29.6
2018-05-06T10:12:55.000Z,29.5
2018-05-06T10:13:55.000Z,29.6
2018-05-06T10:14:55.000Z,29.6
2018-05-06T10:16:55.000Z,29.6
2018-05-06T10:17:55.000Z,29.6
2018-05-06T10:18:55.000Z,29.6
2018-05-06T10:20:55.000Z,29.6
2018-05-06T10:22:56.000Z,29.6
2018-05-06T10:24:56.000Z,29.5
2018-05-06T10:26:56.000Z,29.4
2018-05-06T10:27:56.000Z,29.4
2018-05-06T10:28:56.000Z,29.5
2018-05-06T10:30:56.000Z,29.6
2018-05-06T10:32:56.000Z,29.5
2018-05-06T10:33:56.000Z,29.5
2018-05-06T10:34:56.000Z,29.5
2018-05-06T10:36:56.000Z,29.6
2018-05-06T10:37:56.000Z,29.6
2018-05-06T10:39:56.000Z,29.6
2018-05-06T10:41:56.000Z,29.6
2018-05-06T10:42:56.000Z,29.6
2018-05-06T10:43:56.000Z,29.6
2018-05-06T10:45:56.000Z,29.6
2018-05-06T10:47:56.000Z,29.6
2018-05-06T10:48:56.000Z,29.6
2018-05-06T10:50:56.000Z,29.6
2018-05-06T10:51:56.000Z,29.6
2018-05-06T10:53:56.000Z,29.6
2018-05-06T10:55:56.000Z,29.6
2018-05-06T10:56:56.000Z,29.6
2018-05-06T10:57:56.000Z,29.6
2018-05-06T10:58:56.000Z,29.7
2018-05-06T11:00:56.000Z,29.7
2018-05-06T11:02:56.000Z,29.7
2018-05-06T11:03:56.000Z,29.6
2018-05-06T11:04:56.000Z,29.7
2018-05-06T11:06:56.000Z,29.7
2018-05-06T11:07:56.000Z,29.6
2018-05-06T11:09:41.000Z,29.7
2018-05-06T11:10:56.000Z,29.6
2018-05-06T11:11:56.000Z,29.6
2018-05-06T11:13:56.000Z,29.5
2018-05-06T11:15:56.000Z,29.5
2018-05-06T11:16:56.000Z,29.5
2018-05-06T11:18:56.000Z,29.6
2018-05-06T11:19:56.000Z,29.6
2018-05-06T11:20:56.000Z,29.6
2018-05-06T11:22:56.000Z,29.6
2018-05-06T11:23:56.000Z,29.6
2018-05-06T11:25:56.000Z,29.6
2018-05-06T11:26:56.000Z,29.6
2018-05-06T11:28:56.000Z,29.6
2018-05-06T11:29:56.000Z,29.6
2018-05-06T11:31:56.000Z,29.6
2018-05-06T11:32:56.000Z,29.6
2018-05-06T11:33:56.000Z,29.7
2018-05-06T11:35:56.000Z,29.7
2018-05-06T11:37:56.000Z,29.6
2018-05-06T11:39:56.000Z,29.6
2018-05-06T11:41:56.000Z,29.5
2018-05-06T11:42:56.000Z,29.5
2018-05-06T11:43:56.000Z,29.5
2018-05-06T11:45:56.000Z,29.6
2018-05-06T11:47:56.000Z,29.6
2018-05-06T11:48:56.000Z,29.5
2018-05-06T11:49:56.000Z,29.6
2018-05-06T11:51:56.000Z,29.6
2018-05-06T11:52:56.000Z,29.6
2018-05-06T11:54:56.000Z,29.6
2018-05-06T11:56:56.000Z,29.6
2018-05-06T11:58:56.000Z,29.6
2018-05-06T12:00:56.000Z,29.5
2018-05-06T12:01:56.000Z,29.5
2018-05-06T12:03:41.000Z,29.5
2018-05-06T12:04:56.000Z,29.5
2018-05-06T12:06:56.000Z,29.5
2018-05-06T12:07:56.000Z,29.5
2018-05-06T12:09:41.000Z,29.6
2018-05-06T12:10:56.000Z,29.6
2018-05-06T12:12:56.000Z,29.5
2018-05-06T12:14:56.000Z,29.5
2018-05-06T12:15:56.000Z,29.5
2018-05-06T12:17:56.000Z,29.5
2018-05-06T12:19:41.000Z,29.5
2018-05-06T12:20:56.000Z,29.5
2018-05-06T12:21:56.000Z,29.5
2018-05-06T12:23:56.000Z,29.6
2018-05-06T12:25:41.000Z,29.6
2018-05-06T12:26:56.000Z,29.6
2018-05-06T12:27:56.000Z,29.6
2018-05-06T12:28:56.000Z,29.7
2018-05-06T12:30:56.000Z,29.8
2018-05-06T12:32:56.000Z,29.8
2018-05-06T12:34:56.000Z,29.7
2018-05-06T12:36:56.000Z,29.7
2018-05-06T12:38:41.000Z,29.7
2018-05-06T12:39:56.000Z,29.6
2018-05-06T12:41:56.000Z,29.6
2018-05-06T12:43:56.000Z,29.6
2018-05-06T12:45:56.000Z,29.6
2018-05-06T12:46:56.000Z,29.5
2018-05-06T12:47:56.000Z,29.6
2018-05-06T12:48:56.000Z,29.6
2018-05-06T12:50:41.000Z,29.7
2018-05-06T12:51:56.000Z,29.6
2018-05-06T12:52:56.000Z,29.7
2018-05-06T12:53:56.000Z,29.8
2018-05-06T12:55:56.000Z,29.8
2018-05-06T12:56:56.000Z,29.8
2018-05-06T12:57:56.000Z,29.8
2018-05-06T12:59:56.000Z,29.9
2018-05-06T13:01:56.000Z,29.8
2018-05-06T13:03:56.000Z,29.7
2018-05-06T13:05:56.000Z,29.6
2018-05-06T13:07:56.000Z,29.6
2018-05-06T13:08:56.000Z,29.6
2018-05-06T13:09:56.000Z,29.6
2018-05-06T13:11:56.000Z,29.6
2018-05-06T13:13:56.000Z,29.6
2018-05-06T13:14:56.000Z,29.6
2018-05-06T13:15:56.000Z,29.7
2018-05-06T13:16:56.000Z,29.8
2018-05-06T13:18:56.000Z,29.9
2018-05-06T13:20:41.000Z,29.9
2018-05-06T13:21:56.000Z,29.8
2018-05-06T13:22:56.000Z,29.8
2018-05-06T13:24:56.000Z,29.8
2018-05-06T13:25:56.000Z,29.8
2018-05-06T13:27:56.000Z,29.8
2018-05-06T13:29:56.000Z,29.7
2018-05-06T13:31:56.000Z,29.6
2018-05-06T13:32:56.000Z,29.6
2018-05-06T13:34:56.000Z,29.6
2018-05-06T13:35:56.000Z,29.6
2018-05-06T13:37:56.000Z,29.7
2018-05-06T13:38:56.000Z,29.7
2018-05-06T13:40:56.000Z,29.8
2018-05-06T13:42:56.000Z,29.7
2018-05-06T13:44:56.000Z,29.6
2018-05-06T13:46:56.000Z,29.6
2018-05-06T13:48:56.000Z,29.6
2018-05-06T13:49:56.000Z,29.6
2018-05-06T13:50:56.000Z,29.7
2018-05-06T13:51:56.000Z,29.8
2018-05-06T13:53:56.000Z,29.9
2018-05-06T13:55:56.000Z,29.9
2018-05-06T13:57:56.000Z,29.8
2018-05-06T13:59:56.000Z,29.8
2018-05-06T14:01:56.000Z,29.7
2018-05-06T14:03:56.000Z,29.7
2018-05-06T14:05:56.000Z,29.6
2018-05-06T14:07:56.000Z,29.5
2018-05-06T14:09:56.000Z,29.5
2018-05-06T14:11:56.000Z,29.5
2018-05-06T14:13:56.000Z,29.5
2018-05-06T14:14:56.000Z,29.5
2018-05-06T14:16:56.000Z,29.6
2018-05-06T14:18:56.000Z,29.6
2018-05-06T14:20:56.000Z,29.6
2018-05-06T14:22:56.000Z,29.6
2018-05-06T14:24:56.000Z,29.5
2018-05-06T14:25:56.000Z,29.6
2018-05-06T14:27:56.000Z,29.6
2018-05-06T14:29:56.000Z,29.7
2018-05-06T14:30:56.000Z,29.7
2018-05-06T14:32:56.000Z,29.7
2018-05-06T14:34:41.000Z,29.7
2018-05-06T14:35:56.000Z,29.7
2018-05-06T14:37:56.000Z,29.7
2018-05-06T14:39:56.000Z,29.7
2018-05-06T14:40:56.000Z,29.7
2018-05-06T14:41:56.000Z,29.8
2018-05-06T14:43:56.000Z,29.9
2018-05-06T14:44:56.000Z,30
2018-05-06T14:46:56.000Z,30
2018-05-06T14:47:56.000Z,30
2018-05-06T14:48:56.000Z,30.1
2018-05-06T14:50:56.000Z,30.2
2018-05-06T14:51:56.000Z,30.2
2018-05-06T14:52:56.000Z,30.3
2018-05-06T14:54:56.000Z,30.3
2018-05-06T14:56:56.000Z,30.2
2018-05-06T14:58:56.000Z,30.2
2018-05-06T15:00:56.000Z,30.1
2018-05-06T15:01:56.000Z,30.1
2018-05-06T15:03:56.000Z,30.1
2018-05-06T15:04:56.000Z,30.1
2018-05-06T15:06:56.000Z,30.2
2018-05-06T15:08:56.000Z,30.2
2018-05-06T15:10:56.000Z,30.1
2018-05-06T15:12:56.000Z,30.1
2018-05-06T15:14:56.000Z,30
2018-05-06T15:15:56.000Z,30
2018-05-06T15:16:56.000Z,30
2018-05-06T15:18:56.000Z,30
2018-05-06T15:20:56.000Z,30
2018-05-06T15:22:56.000Z,30
2018-05-06T15:24:56.000Z,29.9
2018-05-06T15:26:56.000Z,29.8
2018-05-06T15:27:56.000Z,29.8
2018-05-06T15:28:56.000Z,29.8
2018-05-06T15:30:56.000Z,29.9
2018-05-06T15:32:56.000Z,29.8
2018-05-06T15:34:56.000Z,29.8
2018-05-06T15:35:56.000Z,29.8
2018-05-06T15:37:41.000Z,29.8
2018-05-06T15:38:56.000Z,29.8
2018-05-06T15:39:56.000Z,29.8
2018-05-06T15:41:56.000Z,29.9
2018-05-06T15:43:56.000Z,29.8
2018-05-06T15:45:56.000Z,29.7
2018-05-06T15:47:56.000Z,29.7
2018-05-06T15:48:56.000Z,29.7
2018-05-06T15:49:56.000Z,29.7
2018-05-06T15:50:56.000Z,29.8
2018-05-06T15:52:56.000Z,29.8
2018-05-06T15:53:56.000Z,29.8
2018-05-06T15:54:56.000Z,29.9
2018-05-06T15:56:56.000Z,30
2018-05-06T15:58:56.000Z,29.9
2018-05-06T15:59:56.000Z,29.9
2018-05-06T16:01:56.000Z,29.9
2018-05-06T16:02:56.000Z,29.9
2018-05-06T16:03:56.000Z,29.9
2018-05-06T16:05:56.000Z,29.9
2018-05-06T16:07:41.000Z,29.9
2018-05-06T16:08:56.000Z,29.9
2018-05-06T16:09:56.000Z,29.9
2018-05-06T16:10:56.000Z,29.9
2018-05-06T16:12:41.000Z,29.9
2018-05-06T16:13:56.000Z,29.8
2018-05-06T16:14:56.000Z,29.8
2018-05-06T16:16:56.000Z,29.9
2018-05-06T16:18:56.000Z,29.8
2018-05-06T16:19:56.000Z,29.8
2018-05-06T16:21:56.000Z,29.8
2018-05-06T16:22:56.000Z,29.8
2018-05-06T16:24:56.000Z,29.8
2018-05-06T16:26:56.000Z,29.7
2018-05-06T16:27:56.000Z,29.7
2018-05-06T16:29:56.000Z,29.7
2018-05-06T16:30:56.000Z,29.7
2018-05-06T16:31:56.000Z,29.8
2018-05-06T16:33:41.000Z,29.9
2018-05-06T16:34:56.000Z,29.8
2018-05-06T16:35:56.000Z,29.8
2018-05-06T16:36:56.000Z,29.9
2018-05-06T16:38:56.000Z,29.8
2018-05-06T16:39:56.000Z,29.8
2018-05-06T16:41:56.000Z,29.8
2018-05-06T16:43:56.000Z,29.8
2018-05-06T16:44:56.000Z,29.8
2018-05-06T16:46:56.000Z,29.8
2018-05-06T16:47:56.000Z,29.8
2018-05-06T16:49:56.000Z,29.8
2018-05-06T16:51:41.000Z,29.8
2018-05-06T16:52:56.000Z,29.7
2018-05-06T16:54:56.000Z,29.7
2018-05-06T16:56:56.000Z,29.6
2018-05-06T16:58:56.000Z,29.6
2018-05-06T17:00:56.000Z,29.6
2018-05-06T17:02:56.000Z,29.6
2018-05-06T17:03:56.000Z,29.6
2018-05-06T17:05:56.000Z,29.7
2018-05-06T17:07:56.000Z,29.8
2018-05-06T17:09:56.000Z,29.8
2018-05-06T17:11:56.000Z,29.7
2018-05-06T17:13:56.000Z,29.7
2018-05-06T17:14:56.000Z,29.7
2018-05-06T17:15:56.000Z,29.8
2018-05-06T17:17:56.000Z,29.8
2018-05-06T17:18:56.000Z,29.8
2018-05-06T17:20:41.000Z,29.9
2018-05-06T17:21:56.000Z,29.8
2018-05-06T17:23:56.000Z,29.8
2018-05-06T17:25:56.000Z,29.7
2018-05-06T17:26:56.000Z,29.7
2018-05-06T17:28:41.000Z,29.7
2018-05-06T17:29:56.000Z,29.7
2018-05-06T17:30:56.000Z,29.8
2018-05-06T17:32:56.000Z,29.8
2018-05-06T17:34:56.000Z,29.8
2018-05-06T17:36:56.000Z,29.8
2018-05-06T17:38:56.000Z,29.8
2018-05-06T17:39:56.000Z,29.8
2018-05-06T17:40:56.000Z,29.8
2018-05-06T17:42:56.000Z,29.8
2018-05-06T17:44:56.000Z,29.8
2018-05-06T17:46:56.000Z,29.6
2018-05-06T17:47:56.000Z,29.6
2018-05-06T17:48:56.000Z,29.7
2018-05-06T17:50:56.000Z,29.7
2018-05-06T17:51:56.000Z,29.7
2018-05-06T17:53:56.000Z,29.7
2018-05-06T17:54:56.000Z,29.7
2018-05-06T17:56:56.000Z,29.7
2018-05-06T17:57:56.000Z,29.7
2018-05-06T17:59:56.000Z,29.8
2018-05-06T18:00:56.000Z,29.8
2018-05-06T18:02:56.000Z,29.8
2018-05-06T18:04:56.000Z,29.8
2018-05-06T18:06:56.000Z,29.8
2018-05-06T18:08:56.000Z,29.7
2018-05-06T18:10:56.000Z,29.7
2018-05-06T18:12:56.000Z,29.7
2018-05-06T18:13:56.000Z,29.7
2018-05-06T18:14:56.000Z,29.7
2018-05-06T18:16:56.000Z,29.8
2018-05-06T18:18:56.000Z,29.8
2018-05-06T18:19:56.000Z,29.7
2018-05-06T18:21:41.000Z,29.8
2018-05-06T18:22:56.000Z,29.7
2018-05-06T18:24:56.000Z,29.7
2018-05-06T18:26:56.000Z,29.6
2018-05-06T18:28:56.000Z,29.6
2018-05-06T18:30:56.000Z,29.5
2018-05-06T18:32:56.000Z,29.5
2018-05-06T18:33:56.000Z,29.5
2018-05-06T18:35:56.000Z,29.5
2018-05-06T18:36:56.000Z,29.5
2018-05-06T18:37:56.000Z,29.5
2018-05-06T18:39:56.000Z,29.6
2018-05-06T18:41:56.000Z,29.5
2018-05-06T18:42:56.000Z,29.5
2018-05-06T18:44:56.000Z,29.5
2018-05-06T18:45:56.000Z,29.6
2018-05-06T18:46:56.000Z,29.6
2018-05-06T18:48:56.000Z,29.7
2018-05-06T18:49:56.000Z,29.7
2018-05-06T18:50:56.000Z,29.8
2018-05-06T18:52:41.000Z,29.8
2018-05-06T18:53:56.000Z,29.8
2018-05-06T18:55:56.000Z,29.7
2018-05-06T18:56:56.000Z,29.7
2018-05-06T18:58:41.000Z,29.7
2018-05-06T18:59:56.000Z,29.7
2018-05-06T19:00:56.000Z,29.7
2018-05-06T19:02:56.000Z,29.7
2018-05-06T19:03:56.000Z,29.7
2018-05-06T19:04:56.000Z,29.7
2018-05-06T19:06:56.000Z,29.7
2018-05-06T19:07:56.000Z,29.7
2018-05-06T19:09:41.000Z,29.7
2018-05-06T19:10:56.000Z,29.6
2018-05-06T19:11:56.000Z,29.6
2018-05-06T19:13:56.000Z,29.6
2018-05-06T19:14:56.000Z,29.6
2018-05-06T19:16:56.000Z,29.7
2018-05-06T19:17:56.000Z,29.7
2018-05-06T19:18:56.000Z,29.7
2018-05-06T19:19:56.000Z,29.8
2018-05-06T19:21:56.000Z,29.8
2018-05-06T19:23:56.000Z,29.7
2018-05-06T19:25:56.000Z,29.6
2018-05-06T19:27:56.000Z,29.5
2018-05-06T19:29:56.000Z,29.4
2018-05-06T19:31:56.000Z,29.3
2018-05-06T19:33:56.000Z,29.3
2018-05-06T19:35:56.000Z,29.2
2018-05-06T19:36:56.000Z,29.2
2018-05-06T19:38:56.000Z,29.3
2018-05-06T19:39:56.000Z,29.3
2018-05-06T19:40:56.000Z,29.4
2018-05-06T19:42:56.000Z,29.5
2018-05-06T19:43:56.000Z,29.5
2018-05-06T19:45:56.000Z,29.5
2018-05-06T19:47:56.000Z,29.5
2018-05-06T19:48:56.000Z,29.5
2018-05-06T19:50:56.000Z,29.5
2018-05-06T19:51:56.000Z,29.5
2018-05-06T19:52:56.000Z,29.5
2018-05-06T19:54:56.000Z,29.5
2018-05-06T19:55:56.000Z,29.5
2018-05-06T19:57:56.000Z,29.5
2018-05-06T19:58:56.000Z,29.5
2018-05-06T20:00:56.000Z,29.5
2018-05-06T20:01:56.000Z,29.5
2018-05-06T20:03:56.000Z,29.5
2018-05-06T20:04:56.000Z,29.5
2018-05-06T20:05:56.000Z,29.5
2018-05-06T20:07:56.000Z,29.6
2018-05-06T20:09:56.000Z,29.6
2018-05-06T20:10:56.000Z,29.5
2018-05-06T20:12:56.000Z,29.5
2018-05-06T20:14:56.000Z,29.5
2018-05-06T20:16:56.000Z,29.4
2018-05-06T20:17:56.000Z,29.4
2018-05-06T20:19:56.000Z,29.4
2018-05-06T20:20:56.000Z,29.4
2018-05-06T20:22:56.000Z,29.3
2018-05-06T20:23:56.000Z,29.3
2018-05-06T20:24:56.000Z,29.3
2018-05-06T20:26:56.000Z,29.3
2018-05-06T20:27:56.000Z,29.4
2018-05-06T20:28:56.000Z,29.4
2018-05-06T20:30:56.000Z,29.5
2018-05-06T20:32:56.000Z,29.4
2018-05-06T20:34:41.000Z,29.3
2018-05-06T20:35:56.000Z,29.3
2018-05-06T20:36:56.000Z,29.3
2018-05-06T20:38:56.000Z,29.3
2018-05-06T20:40:56.000Z,29.3
2018-05-06T20:42:56.000Z,29.3
2018-05-06T20:43:56.000Z,29.3
2018-05-06T20:44:56.000Z,29.3
2018-05-06T20:46:56.000Z,29.3
2018-05-06T20:47:56.000Z,29.3
2018-05-06T20:49:56.000Z,29.4
2018-05-06T20:51:56.000Z,29.3
2018-05-06T20:53:56.000Z,29.3